sensor_id;sensor_type;location;lat;lon;timestamp;temperature;humidity
35607;DHT22;21729;58.392;15.656;2023-05-10T00:01:21;7.40;1.00
35607;DHT22;21729;58.392;15.656;2023-05-10T00:03:48;7.30;1.00
35607;DHT22;21729;58.392;15.656;2023-05-10T00:06:15;7.30;1.00
35607;DHT22;21729;58.392;15.656;2023-05-10T00:08:43;7.40;1.00
35607;DHT22;21729;58.392;15.656;2023-05-10T00:11:12;7.40;1.00
35607;DHT22;21729;58.392;15.656;2023-05-10T00:13:39;7.40;1.00
35607;DHT22;21729;58.392;15.656;2023-05-10T00:16:06;7.30;1.00
35607;DHT22;21729;58.392;15.656;2023-05-10T00:18:34;7.20;1.00
35607;DHT22;21729;58.392;15.656;2023-05-10T00:21:01;7.20;1.00
35607;DHT22;21729;58.392;15.656;2023-05-10T00:23:28;7.30;1.00
35607;DHT22;21729;58.392;15.656;2023-05-10T00:25:55;7.20;1.00
35607;DHT22;21729;58.392;15.656;2023-05-10T00:28:24;7.20;1.00
35607;DHT22;21729;58.392;15.656;2023-05-10T00:30:51;7.10;1.00
35607;DHT22;21729;58.392;15.656;2023-05-10T00:33:18;7.10;1.00
35607;DHT22;21729;58.392;15.656;2023-05-10T00:35:45;7.10;1.00
35607;DHT22;21729;58.392;15.656;2023-05-10T00:38:12;7.10;1.00
35607;DHT22;21729;58.392;15.656;2023-05-10T00:40:40;7.00;1.00
35607;DHT22;21729;58.392;15.656;2023-05-10T00:43:07;7.00;1.00
35607;DHT22;21729;58.392;15.656;2023-05-10T00:45:36;7.00;1.00
35607;DHT22;21729;58.392;15.656;2023-05-10T00:48:04;6.90;1.00
35607;DHT22;21729;58.392;15.656;2023-05-10T00:50:32;6.80;1.00
35607;DHT22;21729;58.392;15.656;2023-05-10T00:53:01;6.90;1.00
35607;DHT22;21729;58.392;15.656;2023-05-10T00:55:30;6.90;1.00
35607;DHT22;21729;58.392;15.656;2023-05-10T00:57:57;6.90;1.00
35607;DHT22;21729;58.392;15.656;2023-05-10T01:00:24;6.80;1.00
35607;DHT22;21729;58.392;15.656;2023-05-10T01:02:53;6.80;1.00
35607;DHT22;21729;58.392;15.656;2023-05-10T01:05:20;6.70;1.00
35607;DHT22;21729;58.392;15.656;2023-05-10T01:07:47;6.70;1.00
35607;DHT22;21729;58.392;15.656;2023-05-10T01:10:15;6.70;1.00
35607;DHT22;21729;58.392;15.656;2023-05-10T01:12:43;6.70;1.00
35607;DHT22;21729;58.392;15.656;2023-05-10T01:15:12;6.60;1.00
35607;DHT22;21729;58.392;15.656;2023-05-10T01:17:43;6.50;1.00
35607;DHT22;21729;58.392;15.656;2023-05-10T01:20:12;6.70;5.60
35607;DHT22;21729;58.392;15.656;2023-05-10T01:26:39;6.50;14.20
35607;DHT22;21729;58.392;15.656;2023-05-10T01:29:31;6.50;23.60
35607;DHT22;21729;58.392;15.656;2023-05-10T01:32:20;6.30;39.50
35607;DHT22;21729;58.392;15.656;2023-05-10T01:34:56;6.30;74.90
35607;DHT22;21729;58.392;15.656;2023-05-10T01:37:31;6.20;99.90
35607;DHT22;21729;58.392;15.656;2023-05-10T01:40:05;6.10;99.90
35607;DHT22;21729;58.392;15.656;2023-05-10T01:42:40;6.20;99.90
35607;DHT22;21729;58.392;15.656;2023-05-10T01:45:17;6.10;99.90
35607;DHT22;21729;58.392;15.656;2023-05-10T01:47:52;6.10;99.90
35607;DHT22;21729;58.392;15.656;2023-05-10T01:50:27;6.10;99.90
35607;DHT22;21729;58.392;15.656;2023-05-10T01:52:57;6.20;99.90
35607;DHT22;21729;58.392;15.656;2023-05-10T01:55:28;6.10;99.90
35607;DHT22;21729;58.392;15.656;2023-05-10T01:58:02;6.10;99.90
35607;DHT22;21729;58.392;15.656;2023-05-10T02:00:30;6.10;99.90
35607;DHT22;21729;58.392;15.656;2023-05-10T02:03:01;6.00;99.90
35607;DHT22;21729;58.392;15.656;2023-05-10T02:05:32;6.10;99.90
35607;DHT22;21729;58.392;15.656;2023-05-10T02:08:01;6.00;99.90
35607;DHT22;21729;58.392;15.656;2023-05-10T02:10:30;6.00;99.90
35607;DHT22;21729;58.392;15.656;2023-05-10T02:12:59;6.00;99.90
35607;DHT22;21729;58.392;15.656;2023-05-10T02:15:28;5.90;99.90
35607;DHT22;21729;58.392;15.656;2023-05-10T02:17:59;5.70;99.90
35607;DHT22;21729;58.392;15.656;2023-05-10T02:20:27;5.70;99.90
35607;DHT22;21729;58.392;15.656;2023-05-10T02:22:56;5.80;99.90
35607;DHT22;21729;58.392;15.656;2023-05-10T02:25:25;5.90;99.90
35607;DHT22;21729;58.392;15.656;2023-05-10T02:27:55;5.80;99.90
35607;DHT22;21729;58.392;15.656;2023-05-10T02:30:23;5.90;99.90
35607;DHT22;21729;58.392;15.656;2023-05-10T02:32:51;5.80;99.90
35607;DHT22;21729;58.392;15.656;2023-05-10T02:35:21;5.80;99.90
35607;DHT22;21729;58.392;15.656;2023-05-10T02:37:50;5.90;99.90
35607;DHT22;21729;58.392;15.656;2023-05-10T02:40:18;5.80;99.90
35607;DHT22;21729;58.392;15.656;2023-05-10T02:42:47;5.70;99.90
35607;DHT22;21729;58.392;15.656;2023-05-10T02:45:19;5.70;99.90
35607;DHT22;21729;58.392;15.656;2023-05-10T02:47:47;5.60;99.90
35607;DHT22;21729;58.392;15.656;2023-05-10T02:50:15;5.70;99.90
35607;DHT22;21729;58.392;15.656;2023-05-10T02:52:46;5.70;99.90
35607;DHT22;21729;58.392;15.656;2023-05-10T02:55:15;5.60;99.90
35607;DHT22;21729;58.392;15.656;2023-05-10T02:57:48;5.60;99.90
35607;DHT22;21729;58.392;15.656;2023-05-10T03:00:18;5.50;99.90
35607;DHT22;21729;58.392;15.656;2023-05-10T03:02:45;5.50;99.90
35607;DHT22;21729;58.392;15.656;2023-05-10T03:05:12;5.50;99.90
35607;DHT22;21729;58.392;15.656;2023-05-10T03:07:40;5.50;99.90
35607;DHT22;21729;58.392;15.656;2023-05-10T03:10:09;5.50;99.90
35607;DHT22;21729;58.392;15.656;2023-05-10T03:12:56;5.50;99.90
35607;DHT22;21729;58.392;15.656;2023-05-10T03:15:32;5.60;99.90
35607;DHT22;21729;58.392;15.656;2023-05-10T03:18:07;5.50;99.90
35607;DHT22;21729;58.392;15.656;2023-05-10T03:20:38;5.50;99.90
35607;DHT22;21729;58.392;15.656;2023-05-10T03:23:13;5.60;99.90
35607;DHT22;21729;58.392;15.656;2023-05-10T03:25:42;5.60;99.90
35607;DHT22;21729;58.392;15.656;2023-05-10T03:28:11;5.70;99.90
35607;DHT22;21729;58.392;15.656;2023-05-10T03:30:40;5.70;99.90
35607;DHT22;21729;58.392;15.656;2023-05-10T03:33:07;5.70;99.90
35607;DHT22;21729;58.392;15.656;2023-05-10T03:35:34;5.80;99.90
35607;DHT22;21729;58.392;15.656;2023-05-10T03:38:02;5.80;99.90
35607;DHT22;21729;58.392;15.656;2023-05-10T03:40:29;5.80;99.90
35607;DHT22;21729;58.392;15.656;2023-05-10T03:42:59;5.90;99.90
35607;DHT22;21729;58.392;15.656;2023-05-10T03:45:26;5.90;99.90
35607;DHT22;21729;58.392;15.656;2023-05-10T03:47:53;6.00;99.90
35607;DHT22;21729;58.392;15.656;2023-05-10T03:50:21;6.00;99.90
35607;DHT22;21729;58.392;15.656;2023-05-10T03:52:48;5.90;99.90
35607;DHT22;21729;58.392;15.656;2023-05-10T03:55:15;6.00;99.90
35607;DHT22;21729;58.392;15.656;2023-05-10T03:57:42;6.10;99.90
35607;DHT22;21729;58.392;15.656;2023-05-10T04:00:12;6.00;99.90
35607;DHT22;21729;58.392;15.656;2023-05-10T04:02:39;6.00;99.90
35607;DHT22;21729;58.392;15.656;2023-05-10T04:05:07;6.00;99.90
35607;DHT22;21729;58.392;15.656;2023-05-10T04:07:35;6.00;99.90
35607;DHT22;21729;58.392;15.656;2023-05-10T04:10:02;6.10;99.90
35607;DHT22;21729;58.392;15.656;2023-05-10T04:12:29;6.10;99.90
35607;DHT22;21729;58.392;15.656;2023-05-10T04:14:56;6.10;99.90
35607;DHT22;21729;58.392;15.656;2023-05-10T04:17:25;6.10;99.90
35607;DHT22;21729;58.392;15.656;2023-05-10T04:19:52;6.10;99.90
35607;DHT22;21729;58.392;15.656;2023-05-10T04:22:20;6.20;99.90
35607;DHT22;21729;58.392;15.656;2023-05-10T04:24:47;6.30;99.90
35607;DHT22;21729;58.392;15.656;2023-05-10T04:27:14;6.30;99.90
35607;DHT22;21729;58.392;15.656;2023-05-10T04:29:41;6.30;99.90
35607;DHT22;21729;58.392;15.656;2023-05-10T04:32:08;6.50;99.90
35607;DHT22;21729;58.392;15.656;2023-05-10T04:34:37;6.60;99.90
35607;DHT22;21729;58.392;15.656;2023-05-10T04:37:05;6.60;99.90
35607;DHT22;21729;58.392;15.656;2023-05-10T04:39:33;6.60;99.90
35607;DHT22;21729;58.392;15.656;2023-05-10T04:42:00;6.60;99.90
35607;DHT22;21729;58.392;15.656;2023-05-10T04:44:28;6.80;99.90
35607;DHT22;21729;58.392;15.656;2023-05-10T04:46:55;6.90;99.90
35607;DHT22;21729;58.392;15.656;2023-05-10T04:49:22;6.90;99.90
35607;DHT22;21729;58.392;15.656;2023-05-10T04:51:51;6.90;99.90
35607;DHT22;21729;58.392;15.656;2023-05-10T04:54:18;7.10;99.90
35607;DHT22;21729;58.392;15.656;2023-05-10T04:56:45;7.10;99.90
35607;DHT22;21729;58.392;15.656;2023-05-10T04:59:12;7.10;99.90
35607;DHT22;21729;58.392;15.656;2023-05-10T05:01:39;7.20;99.90
35607;DHT22;21729;58.392;15.656;2023-05-10T05:04:07;7.30;99.90
35607;DHT22;21729;58.392;15.656;2023-05-10T05:06:34;7.50;99.90
35607;DHT22;21729;58.392;15.656;2023-05-10T05:09:02;7.50;99.90
35607;DHT22;21729;58.392;15.656;2023-05-10T05:11:29;7.60;99.90
35607;DHT22;21729;58.392;15.656;2023-05-10T05:13:56;7.90;99.90
35607;DHT22;21729;58.392;15.656;2023-05-10T05:16:25;8.10;99.90
35607;DHT22;21729;58.392;15.656;2023-05-10T05:18:55;8.10;99.90
35607;DHT22;21729;58.392;15.656;2023-05-10T05:21:23;8.30;99.90
35607;DHT22;21729;58.392;15.656;2023-05-10T05:23:52;8.50;99.90
35607;DHT22;21729;58.392;15.656;2023-05-10T05:26:20;8.80;99.90
35607;DHT22;21729;58.392;15.656;2023-05-10T05:28:48;9.00;99.90
35607;DHT22;21729;58.392;15.656;2023-05-10T05:31:18;9.20;99.90
35607;DHT22;21729;58.392;15.656;2023-05-10T05:33:45;9.50;85.00
35607;DHT22;21729;58.392;15.656;2023-05-10T05:36:12;9.80;34.80
35607;DHT22;21729;58.392;15.656;2023-05-10T05:38:39;10.20;1.00
35607;DHT22;21729;58.392;15.656;2023-05-10T05:41:06;10.50;1.00
35607;DHT22;21729;58.392;15.656;2023-05-10T05:43:35;10.90;1.00
35607;DHT22;21729;58.392;15.656;2023-05-10T05:46:02;11.20;1.00
35607;DHT22;21729;58.392;15.656;2023-05-10T05:48:30;11.60;1.00
35607;DHT22;21729;58.392;15.656;2023-05-10T05:50:57;12.10;1.00
35607;DHT22;21729;58.392;15.656;2023-05-10T05:53:24;13.20;1.00
35607;DHT22;21729;58.392;15.656;2023-05-10T05:55:52;16.70;99.90
35607;DHT22;21729;58.392;15.656;2023-05-10T05:58:20;19.70;99.90
35607;DHT22;21729;58.392;15.656;2023-05-10T06:00:49;20.40;99.90
35607;DHT22;21729;58.392;15.656;2023-05-10T06:03:17;21.80;99.90
35607;DHT22;21729;58.392;15.656;2023-05-10T06:05:44;22.60;99.90
35607;DHT22;21729;58.392;15.656;2023-05-10T06:08:11;23.40;99.90
35607;DHT22;21729;58.392;15.656;2023-05-10T06:10:39;23.30;99.90
35607;DHT22;21729;58.392;15.656;2023-05-10T06:13:06;23.30;76.70
35607;DHT22;21729;58.392;15.656;2023-05-10T06:15:33;24.10;81.90
35607;DHT22;21729;58.392;15.656;2023-05-10T06:18:02;24.50;70.60
35607;DHT22;21729;58.392;15.656;2023-05-10T06:20:29;24.80;58.10
35607;DHT22;21729;58.392;15.656;2023-05-10T06:22:57;24.30;47.60
35607;DHT22;21729;58.392;15.656;2023-05-10T06:25:24;25.40;35.90
35607;DHT22;21729;58.392;15.656;2023-05-10T06:27:51;25.60;24.20
35607;DHT22;21729;58.392;15.656;2023-05-10T06:30:24;25.60;2.90
35607;DHT22;21729;58.392;15.656;2023-05-10T06:32:53;25.30;13.50
35607;DHT22;21729;58.392;15.656;2023-05-10T06:35:22;25.30;34.40
35607;DHT22;21729;58.392;15.656;2023-05-10T06:37:50;25.00;27.20
35607;DHT22;21729;58.392;15.656;2023-05-10T06:40:18;25.50;21.80
35607;DHT22;21729;58.392;15.656;2023-05-10T06:42:45;25.30;10.40
35607;DHT22;21729;58.392;15.656;2023-05-10T06:45:12;25.10;10.60
35607;DHT22;21729;58.392;15.656;2023-05-10T06:47:40;26.20;1.00
35607;DHT22;21729;58.392;15.656;2023-05-10T06:50:08;26.30;18.20
35607;DHT22;21729;58.392;15.656;2023-05-10T06:52:37;25.70;13.90
35607;DHT22;21729;58.392;15.656;2023-05-10T06:55:05;26.00;9.10
35607;DHT22;21729;58.392;15.656;2023-05-10T06:57:32;26.60;1.00
35607;DHT22;21729;58.392;15.656;2023-05-10T07:00:00;26.90;1.00
35607;DHT22;21729;58.392;15.656;2023-05-10T07:02:29;26.70;13.20
35607;DHT22;21729;58.392;15.656;2023-05-10T07:04:56;27.30;1.00
35607;DHT22;21729;58.392;15.656;2023-05-10T07:07:23;27.70;1.50
35607;DHT22;21729;58.392;15.656;2023-05-10T07:09:52;27.60;1.00
35607;DHT22;21729;58.392;15.656;2023-05-10T07:12:19;27.80;1.00
35607;DHT22;21729;58.392;15.656;2023-05-10T07:14:46;26.80;1.00
35607;DHT22;21729;58.392;15.656;2023-05-10T07:17:13;27.40;1.00
35607;DHT22;21729;58.392;15.656;2023-05-10T07:19:40;27.60;1.00
35607;DHT22;21729;58.392;15.656;2023-05-10T07:22:08;27.30;1.00
35607;DHT22;21729;58.392;15.656;2023-05-10T07:24:35;26.70;1.00
35607;DHT22;21729;58.392;15.656;2023-05-10T07:27:04;27.40;1.00
35607;DHT22;21729;58.392;15.656;2023-05-10T07:29:32;28.10;1.00
35607;DHT22;21729;58.392;15.656;2023-05-10T07:32:00;27.90;1.00
35607;DHT22;21729;58.392;15.656;2023-05-10T07:34:27;27.40;1.00
35607;DHT22;21729;58.392;15.656;2023-05-10T07:36:56;27.80;1.00
35607;DHT22;21729;58.392;15.656;2023-05-10T07:39:23;27.90;1.00
35607;DHT22;21729;58.392;15.656;2023-05-10T07:41:50;28.70;1.00
35607;DHT22;21729;58.392;15.656;2023-05-10T07:44:19;28.90;1.00
35607;DHT22;21729;58.392;15.656;2023-05-10T07:46:46;28.60;1.00
35607;DHT22;21729;58.392;15.656;2023-05-10T07:49:14;28.00;1.00
35607;DHT22;21729;58.392;15.656;2023-05-10T07:51:41;27.80;1.00
35607;DHT22;21729;58.392;15.656;2023-05-10T07:54:08;27.10;1.00
35607;DHT22;21729;58.392;15.656;2023-05-10T07:56:35;27.30;1.00
35607;DHT22;21729;58.392;15.656;2023-05-10T07:59:03;28.30;1.00
35607;DHT22;21729;58.392;15.656;2023-05-10T08:01:34;27.50;1.00
35607;DHT22;21729;58.392;15.656;2023-05-10T08:04:01;27.70;1.00
35607;DHT22;21729;58.392;15.656;2023-05-10T08:06:29;27.90;1.00
35607;DHT22;21729;58.392;15.656;2023-05-10T08:08:56;28.50;1.00
35607;DHT22;21729;58.392;15.656;2023-05-10T08:11:24;27.10;1.00
35607;DHT22;21729;58.392;15.656;2023-05-10T08:13:51;27.10;1.00
35607;DHT22;21729;58.392;15.656;2023-05-10T08:16:18;26.70;1.00
35607;DHT22;21729;58.392;15.656;2023-05-10T08:18:47;27.70;1.00
35607;DHT22;21729;58.392;15.656;2023-05-10T08:21:15;27.90;1.00
35607;DHT22;21729;58.392;15.656;2023-05-10T08:23:42;28.40;1.00
35607;DHT22;21729;58.392;15.656;2023-05-10T08:26:09;27.30;1.00
35607;DHT22;21729;58.392;15.656;2023-05-10T08:28:37;27.60;1.00
35607;DHT22;21729;58.392;15.656;2023-05-10T08:31:04;28.40;1.00
35607;DHT22;21729;58.392;15.656;2023-05-10T08:33:31;28.40;1.00
35607;DHT22;21729;58.392;15.656;2023-05-10T08:36:00;28.20;1.00
35607;DHT22;21729;58.392;15.656;2023-05-10T08:38:27;28.00;1.00
35607;DHT22;21729;58.392;15.656;2023-05-10T08:40:55;28.00;1.00
35607;DHT22;21729;58.392;15.656;2023-05-10T08:43:27;28.50;1.00
35607;DHT22;21729;58.392;15.656;2023-05-10T08:45:55;29.10;1.00
35607;DHT22;21729;58.392;15.656;2023-05-10T08:48:23;28.50;1.00
35607;DHT22;21729;58.392;15.656;2023-05-10T08:50:53;28.20;1.00
35607;DHT22;21729;58.392;15.656;2023-05-10T08:53:24;28.20;1.00
35607;DHT22;21729;58.392;15.656;2023-05-10T08:55:53;27.80;1.00
35607;DHT22;21729;58.392;15.656;2023-05-10T08:58:20;28.80;1.00
35607;DHT22;21729;58.392;15.656;2023-05-10T09:00:49;28.40;1.00
35607;DHT22;21729;58.392;15.656;2023-05-10T09:03:18;28.60;1.00
35607;DHT22;21729;58.392;15.656;2023-05-10T09:05:45;28.70;1.00
35607;DHT22;21729;58.392;15.656;2023-05-10T09:08:13;28.90;1.00
35607;DHT22;21729;58.392;15.656;2023-05-10T09:10:44;29.00;1.00
35607;DHT22;21729;58.392;15.656;2023-05-10T09:13:14;29.30;1.00
35607;DHT22;21729;58.392;15.656;2023-05-10T09:15:44;28.80;1.00
35607;DHT22;21729;58.392;15.656;2023-05-10T09:18:12;28.80;1.00
35607;DHT22;21729;58.392;15.656;2023-05-10T09:20:39;29.50;1.00
35607;DHT22;21729;58.392;15.656;2023-05-10T09:23:06;28.90;1.00
35607;DHT22;21729;58.392;15.656;2023-05-10T09:25:34;28.10;1.00
35607;DHT22;21729;58.392;15.656;2023-05-10T09:28:06;27.90;1.00
35607;DHT22;21729;58.392;15.656;2023-05-10T09:30:33;27.70;1.00
35607;DHT22;21729;58.392;15.656;2023-05-10T09:33:01;28.10;1.00
35607;DHT22;21729;58.392;15.656;2023-05-10T09:35:30;27.50;1.00
35607;DHT22;21729;58.392;15.656;2023-05-10T09:38:01;27.70;1.00
35607;DHT22;21729;58.392;15.656;2023-05-10T09:40:30;28.20;1.00
35607;DHT22;21729;58.392;15.656;2023-05-10T09:42:58;28.00;1.00
35607;DHT22;21729;58.392;15.656;2023-05-10T09:45:28;28.20;1.00
35607;DHT22;21729;58.392;15.656;2023-05-10T09:47:55;27.30;1.00
35607;DHT22;21729;58.392;15.656;2023-05-10T09:50:24;27.60;1.00
35607;DHT22;21729;58.392;15.656;2023-05-10T09:52:52;26.90;1.00
35607;DHT22;21729;58.392;15.656;2023-05-10T09:55:21;27.00;1.00
35607;DHT22;21729;58.392;15.656;2023-05-10T09:57:49;26.30;1.00
35607;DHT22;21729;58.392;15.656;2023-05-10T10:00:18;24.70;1.00
35607;DHT22;21729;58.392;15.656;2023-05-10T10:02:48;24.00;1.00
35607;DHT22;21729;58.392;15.656;2023-05-10T10:05:20;23.90;1.00
35607;DHT22;21729;58.392;15.656;2023-05-10T10:07:48;23.40;1.00
35607;DHT22;21729;58.392;15.656;2023-05-10T10:10:16;22.90;1.00
35607;DHT22;21729;58.392;15.656;2023-05-10T10:12:44;22.30;1.00
35607;DHT22;21729;58.392;15.656;2023-05-10T10:15:11;22.50;1.00
35607;DHT22;21729;58.392;15.656;2023-05-10T10:17:39;22.20;1.00
35607;DHT22;21729;58.392;15.656;2023-05-10T10:20:10;22.40;1.00
35607;DHT22;21729;58.392;15.656;2023-05-10T10:22:37;22.30;1.00
35607;DHT22;21729;58.392;15.656;2023-05-10T10:25:05;21.80;1.00
35607;DHT22;21729;58.392;15.656;2023-05-10T10:27:39;21.30;1.00
35607;DHT22;21729;58.392;15.656;2023-05-10T10:30:17;21.10;1.00
35607;DHT22;21729;58.392;15.656;2023-05-10T10:33:09;21.20;1.00
35607;DHT22;21729;58.392;15.656;2023-05-10T10:35:43;21.00;1.00
35607;DHT22;21729;58.392;15.656;2023-05-10T10:38:12;20.70;1.00
35607;DHT22;21729;58.392;15.656;2023-05-10T10:40:39;20.80;1.00
35607;DHT22;21729;58.392;15.656;2023-05-10T10:43:25;20.30;1.00
35607;DHT22;21729;58.392;15.656;2023-05-10T10:46:12;20.50;1.00
35607;DHT22;21729;58.392;15.656;2023-05-10T10:48:40;20.40;1.00
35607;DHT22;21729;58.392;15.656;2023-05-10T10:51:09;20.40;1.00
35607;DHT22;21729;58.392;15.656;2023-05-10T10:53:38;20.90;1.00
35607;DHT22;21729;58.392;15.656;2023-05-10T10:56:07;20.60;1.00
35607;DHT22;21729;58.392;15.656;2023-05-10T10:58:36;20.70;1.00
35607;DHT22;21729;58.392;15.656;2023-05-10T11:01:13;20.50;7.80
35607;DHT22;21729;58.392;15.656;2023-05-10T11:04:16;20.10;1.00
35607;DHT22;21729;58.392;15.656;2023-05-10T11:06:43;20.40;1.00
35607;DHT22;21729;58.392;15.656;2023-05-10T11:09:12;20.10;1.00
35607;DHT22;21729;58.392;15.656;2023-05-10T11:11:49;19.50;1.00
35607;DHT22;21729;58.392;15.656;2023-05-10T11:14:20;19.80;8.00
35607;DHT22;21729;58.392;15.656;2023-05-10T11:16:48;20.10;4.00
35607;DHT22;21729;58.392;15.656;2023-05-10T11:19:16;20.00;1.00
35607;DHT22;21729;58.392;15.656;2023-05-10T11:21:49;20.10;1.00
35607;DHT22;21729;58.392;15.656;2023-05-10T11:24:18;19.70;1.00
35607;DHT22;21729;58.392;15.656;2023-05-10T11:26:45;19.60;1.00
35607;DHT22;21729;58.392;15.656;2023-05-10T11:29:13;19.80;1.00
35607;DHT22;21729;58.392;15.656;2023-05-10T11:31:44;19.60;1.00
35607;DHT22;21729;58.392;15.656;2023-05-10T11:34:15;19.50;1.00
35607;DHT22;21729;58.392;15.656;2023-05-10T11:36:52;19.50;5.60
35607;DHT22;21729;58.392;15.656;2023-05-10T11:39:20;19.70;8.50
35607;DHT22;21729;58.392;15.656;2023-05-10T11:41:48;19.60;1.00
35607;DHT22;21729;58.392;15.656;2023-05-10T11:44:16;19.50;1.00
35607;DHT22;21729;58.392;15.656;2023-05-10T11:46:44;19.70;10.40
35607;DHT22;21729;58.392;15.656;2023-05-10T11:49:11;19.70;1.00
35607;DHT22;21729;58.392;15.656;2023-05-10T11:51:39;19.30;1.00
35607;DHT22;21729;58.392;15.656;2023-05-10T11:54:11;19.40;3.50
35607;DHT22;21729;58.392;15.656;2023-05-10T11:56:40;19.60;2.60
35607;DHT22;21729;58.392;15.656;2023-05-10T11:59:08;19.60;1.00
35607;DHT22;21729;58.392;15.656;2023-05-10T12:01:36;19.50;1.00
35607;DHT22;21729;58.392;15.656;2023-05-10T12:04:03;19.70;1.00
35607;DHT22;21729;58.392;15.656;2023-05-10T12:06:32;19.50;1.00
35607;DHT22;21729;58.392;15.656;2023-05-10T12:09:06;19.50;1.00
35607;DHT22;21729;58.392;15.656;2023-05-10T12:11:38;19.10;4.30
35607;DHT22;21729;58.392;15.656;2023-05-10T12:14:06;19.30;1.40
35607;DHT22;21729;58.392;15.656;2023-05-10T12:16:33;19.50;8.50
35607;DHT22;21729;58.392;15.656;2023-05-10T12:19:00;19.40;5.80
35607;DHT22;21729;58.392;15.656;2023-05-10T12:21:29;19.10;1.00
35607;DHT22;21729;58.392;15.656;2023-05-10T12:24:00;19.10;9.80
35607;DHT22;21729;58.392;15.656;2023-05-10T12:26:28;19.30;17.70
35607;DHT22;21729;58.392;15.656;2023-05-10T12:29:12;19.30;3.30
35607;DHT22;21729;58.392;15.656;2023-05-10T12:31:50;19.30;4.20
35607;DHT22;21729;58.392;15.656;2023-05-10T12:34:26;19.30;1.60
35607;DHT22;21729;58.392;15.656;2023-05-10T12:36:53;19.20;8.70
35607;DHT22;21729;58.392;15.656;2023-05-10T12:39:21;19.40;4.90
35607;DHT22;21729;58.392;15.656;2023-05-10T12:41:48;19.30;8.50
35607;DHT22;21729;58.392;15.656;2023-05-10T12:44:17;19.10;2.20
35607;DHT22;21729;58.392;15.656;2023-05-10T12:46:45;19.20;9.60
35607;DHT22;21729;58.392;15.656;2023-05-10T12:49:13;19.20;14.10
35607;DHT22;21729;58.392;15.656;2023-05-10T12:51:40;19.20;6.60
35607;DHT22;21729;58.392;15.656;2023-05-10T12:54:07;19.30;5.30
35607;DHT22;21729;58.392;15.656;2023-05-10T12:56:34;19.40;4.50
35607;DHT22;21729;58.392;15.656;2023-05-10T12:59:02;19.40;10.30
35607;DHT22;21729;58.392;15.656;2023-05-10T13:01:31;19.10;2.10
35607;DHT22;21729;58.392;15.656;2023-05-10T13:03:58;19.00;4.90
35607;DHT22;21729;58.392;15.656;2023-05-10T13:06:26;19.10;5.40
35607;DHT22;21729;58.392;15.656;2023-05-10T13:08:53;19.30;7.70
35607;DHT22;21729;58.392;15.656;2023-05-10T13:11:20;19.20;1.00
35607;DHT22;21729;58.392;15.656;2023-05-10T13:13:47;19.10;7.50
35607;DHT22;21729;58.392;15.656;2023-05-10T13:16:14;19.00;3.60
35607;DHT22;21729;58.392;15.656;2023-05-10T13:18:43;18.90;8.70
35607;DHT22;21729;58.392;15.656;2023-05-10T13:21:10;19.00;7.40
35607;DHT22;21729;58.392;15.656;2023-05-10T13:23:37;18.90;2.80
35607;DHT22;21729;58.392;15.656;2023-05-10T13:26:05;19.10;10.80
35607;DHT22;21729;58.392;15.656;2023-05-10T13:28:32;19.00;2.00
35607;DHT22;21729;58.392;15.656;2023-05-10T13:30:59;19.00;13.30
35607;DHT22;21729;58.392;15.656;2023-05-10T13:33:26;18.90;7.50
35607;DHT22;21729;58.392;15.656;2023-05-10T13:35:55;18.90;8.70
35607;DHT22;21729;58.392;15.656;2023-05-10T13:38:22;18.90;3.60
35607;DHT22;21729;58.392;15.656;2023-05-10T13:40:51;18.90;9.00
35607;DHT22;21729;58.392;15.656;2023-05-10T13:43:18;19.00;13.00
35607;DHT22;21729;58.392;15.656;2023-05-10T13:45:46;18.90;7.20
35607;DHT22;21729;58.392;15.656;2023-05-10T13:48:13;19.00;10.70
35607;DHT22;21729;58.392;15.656;2023-05-10T13:50:40;18.80;5.20
35607;DHT22;21729;58.392;15.656;2023-05-10T13:53:09;18.90;5.70
35607;DHT22;21729;58.392;15.656;2023-05-10T13:55:38;18.90;15.80
35607;DHT22;21729;58.392;15.656;2023-05-10T13:58:05;18.70;9.10
35607;DHT22;21729;58.392;15.656;2023-05-10T14:00:32;18.90;16.20
35607;DHT22;21729;58.392;15.656;2023-05-10T14:02:59;18.60;11.50
35607;DHT22;21729;58.392;15.656;2023-05-10T14:05:26;18.50;14.40
35607;DHT22;21729;58.392;15.656;2023-05-10T14:07:54;18.50;12.70
35607;DHT22;21729;58.392;15.656;2023-05-10T14:10:23;18.30;13.20
35607;DHT22;21729;58.392;15.656;2023-05-10T14:12:51;18.30;16.60
35607;DHT22;21729;58.392;15.656;2023-05-10T14:15:20;18.30;32.10
35607;DHT22;21729;58.392;15.656;2023-05-10T14:17:48;18.30;17.70
35607;DHT22;21729;58.392;15.656;2023-05-10T14:20:16;18.20;25.20
35607;DHT22;21729;58.392;15.656;2023-05-10T14:22:43;18.20;21.70
35607;DHT22;21729;58.392;15.656;2023-05-10T14:25:11;18.10;16.00
35607;DHT22;21729;58.392;15.656;2023-05-10T14:27:41;17.90;19.10
35607;DHT22;21729;58.392;15.656;2023-05-10T14:30:11;17.90;19.40
35607;DHT22;21729;58.392;15.656;2023-05-10T14:32:39;17.90;33.30
35607;DHT22;21729;58.392;15.656;2023-05-10T14:35:07;17.70;24.80
35607;DHT22;21729;58.392;15.656;2023-05-10T14:37:34;17.70;31.40
35607;DHT22;21729;58.392;15.656;2023-05-10T14:40:04;17.80;25.20
35607;DHT22;21729;58.392;15.656;2023-05-10T14:42:35;17.70;31.60
35607;DHT22;21729;58.392;15.656;2023-05-10T14:45:06;17.60;32.90
35607;DHT22;21729;58.392;15.656;2023-05-10T14:47:34;17.60;38.50
35607;DHT22;21729;58.392;15.656;2023-05-10T14:50:01;17.70;29.90
35607;DHT22;21729;58.392;15.656;2023-05-10T14:52:29;17.60;32.10
35607;DHT22;21729;58.392;15.656;2023-05-10T14:54:57;17.50;27.60
35607;DHT22;21729;58.392;15.656;2023-05-10T14:57:26;17.50;34.40
35607;DHT22;21729;58.392;15.656;2023-05-10T14:59:55;17.40;35.70
35607;DHT22;21729;58.392;15.656;2023-05-10T15:02:24;17.40;38.20
35607;DHT22;21729;58.392;15.656;2023-05-10T15:04:52;17.40;32.80
35607;DHT22;21729;58.392;15.656;2023-05-10T15:07:19;17.30;28.60
35607;DHT22;21729;58.392;15.656;2023-05-10T15:09:48;17.30;27.40
35607;DHT22;21729;58.392;15.656;2023-05-10T15:12:16;17.20;34.20
35607;DHT22;21729;58.392;15.656;2023-05-10T15:14:44;17.10;37.70
35607;DHT22;21729;58.392;15.656;2023-05-10T15:17:12;17.10;36.90
35607;DHT22;21729;58.392;15.656;2023-05-10T15:19:41;17.00;38.00
35607;DHT22;21729;58.392;15.656;2023-05-10T15:22:09;17.00;34.70
35607;DHT22;21729;58.392;15.656;2023-05-10T15:24:39;17.00;39.60
35607;DHT22;21729;58.392;15.656;2023-05-10T15:27:07;16.90;43.00
35607;DHT22;21729;58.392;15.656;2023-05-10T15:29:34;17.00;54.70
35607;DHT22;21729;58.392;15.656;2023-05-10T15:32:02;16.90;33.50
35607;DHT22;21729;58.392;15.656;2023-05-10T15:34:36;16.80;45.40
35607;DHT22;21729;58.392;15.656;2023-05-10T15:37:05;16.80;54.10
35607;DHT22;21729;58.392;15.656;2023-05-10T15:39:32;16.80;53.30
35607;DHT22;21729;58.392;15.656;2023-05-10T15:42:02;16.70;47.50
35607;DHT22;21729;58.392;15.656;2023-05-10T15:44:32;16.60;48.90